Time;durP1;ratioP1;P1;durP2;ratioP2;P2;SDS_P1;SDS_P2;PMS_P1;PMS_P2;Temp;Humidity;BMP_temperature;BMP_pressure;BME280_temperature;BME280_humidity;BME280_pressure;Samples;Min_cycle;Max_cycle;Signal;HPM_P1;HPM_P2
2022/05/31 00:01:09;;;;;;;12.77;10.50;;;10.30;99.90;;;;;;5049680;28;20284;-59
2022/05/31 00:03:40;;;;;;;15.10;10.80;;;10.10;99.90;;;;;;5049549;28;20609;-59
2022/05/31 00:06:08;;;;;;;13.90;10.47;;;10.00;99.90;;;;;;5045679;28;20564;-58
2022/05/31 00:08:42;;;;;;;14.37;10.63;;;10.00;99.90;;;;;;5051421;28;20208;-59
2022/05/31 00:11:10;;;;;;;12.53;9.60;;;10.00;99.90;;;;;;5053992;28;20217;-59
2022/05/31 00:13:38;;;;;;;14.57;10.60;;;9.90;99.90;;;;;;5051320;28;20182;-59
2022/05/31 00:16:07;;;;;;;15.83;11.07;;;10.00;99.90;;;;;;5054239;28;20196;-59
2022/05/31 00:18:38;;;;;;;14.10;11.07;;;10.00;99.90;;;;;;5048832;28;20189;-59
2022/05/31 00:21:08;;;;;;;14.30;10.20;;;10.00;99.90;;;;;;5053528;28;20196;-58
2022/05/31 00:23:39;;;;;;;12.10;10.47;;;10.00;99.90;;;;;;5080587;28;20231;-59
2022/05/31 00:26:07;;;;;;;15.83;10.40;;;9.90;99.90;;;;;;5047232;28;20203;-58
2022/05/31 00:28:36;;;;;;;14.20;9.73;;;9.90;99.90;;;;;;5048111;28;20213;-59
2022/05/31 00:31:07;;;;;;;16.93;10.40;;;9.90;99.90;;;;;;5047436;28;20211;-59
2022/05/31 00:33:36;;;;;;;12.77;11.13;;;9.90;99.90;;;;;;5053251;28;20201;-59
2022/05/31 00:36:06;;;;;;;11.30;10.20;;;9.90;99.90;;;;;;5047656;28;20331;-58
2022/05/31 00:38:35;;;;;;;15.10;10.70;;;9.90;99.90;;;;;;5046629;28;20201;-59
2022/05/31 00:41:24;;;;;;;15.93;11.10;;;9.90;99.90;;;;;;5065323;28;20213;-59
2022/05/31 00:43:57;;;;;;;15.70;11.00;;;9.80;99.90;;;;;;5049127;28;20208;-59
2022/05/31 00:46:31;;;;;;;12.97;10.53;;;9.80;99.90;;;;;;5045260;28;20231;-60
2022/05/31 00:49:05;;;;;;;13.93;10.37;;;9.80;99.90;;;;;;5051475;28;20224;-59
2022/05/31 00:51:40;;;;;;;12.17;10.87;;;9.80;99.90;;;;;;5051424;28;20207;-59
2022/05/31 00:54:22;;;;;;;14.67;10.87;;;9.80;99.90;;;;;;5051465;28;20204;-59
2022/05/31 00:56:52;;;;;;;17.30;11.00;;;9.70;99.90;;;;;;5052717;28;20197;-59
2022/05/31 00:59:24;;;;;;;16.93;11.00;;;9.70;99.90;;;;;;5051762;28;20275;-59
2022/05/31 01:02:15;;;;;;;12.87;11.27;;;9.70;99.90;;;;;;5047023;28;20193;-59
2022/05/31 01:04:50;;;;;;;13.47;11.33;;;9.80;99.90;;;;;;5051164;28;20205;-58
2022/05/31 01:07:56;;;;;;;14.80;11.57;;;9.80;99.90;;;;;;5050645;28;20196;-59
2022/05/31 01:10:26;;;;;;;18.67;12.13;;;9.80;99.90;;;;;;5050899;28;20216;-59
2022/05/31 01:12:55;;;;;;;17.83;12.40;;;9.80;99.90;;;;;;5050514;28;20631;-58
2022/05/31 01:15:23;;;;;;;16.43;12.60;;;9.80;99.90;;;;;;5037710;28;20224;-59
2022/05/31 01:17:52;;;;;;;16.70;12.33;;;9.80;99.90;;;;;;5050747;28;20220;-59
2022/05/31 01:20:23;;;;;;;16.90;13.10;;;9.80;99.90;;;;;;5050061;28;20251;-59
2022/05/31 01:22:55;;;;;;;12.50;11.20;;;9.80;99.90;;;;;;5050471;28;20258;-59
2022/05/31 01:25:48;;;;;;;14.83;11.77;;;9.70;99.90;;;;;;5050650;28;20197;-59
2022/05/31 01:28:26;;;;;;;15.63;12.03;;;9.70;99.90;;;;;;5046521;28;20224;-59
2022/05/31 01:30:58;;;;;;;13.53;11.43;;;9.70;99.90;;;;;;5045852;28;20312;-59
2022/05/31 01:33:32;;;;;;;17.27;12.30;;;9.70;99.90;;;;;;5050259;28;20346;-59
2022/05/31 01:36:08;;;;;;;15.87;12.97;;;9.60;99.90;;;;;;5046492;28;20316;-59
2022/05/31 01:38:41;;;;;;;17.17;12.80;;;9.40;99.90;;;;;;5050658;28;20206;-59
2022/05/31 01:41:14;;;;;;;16.13;13.33;;;9.40;99.90;;;;;;5080062;28;20279;-59
2022/05/31 01:43:44;;;;;;;16.27;13.30;;;9.40;99.90;;;;;;5045477;28;20201;-59
2022/05/31 01:46:20;;;;;;;20.80;13.80;;;9.30;99.90;;;;;;5049884;28;20192;-59
2022/05/31 01:48:50;;;;;;;19.40;13.57;;;9.30;99.90;;;;;;5074697;28;20926;-59
2022/05/31 01:51:21;;;;;;;17.40;13.27;;;9.40;99.90;;;;;;5049770;28;20205;-59
2022/05/31 01:53:52;;;;;;;16.40;13.53;;;9.40;99.90;;;;;;5047842;28;20201;-59
2022/05/31 01:56:22;;;;;;;18.50;14.00;;;9.40;99.90;;;;;;5051617;28;20197;-59
2022/05/31 01:58:54;;;;;;;16.97;14.30;;;9.40;99.90;;;;;;5042630;28;20208;-59
2022/05/31 02:01:28;;;;;;;14.90;13.23;;;9.40;99.90;;;;;;5049326;28;20243;-58
2022/05/31 02:03:56;;;;;;;18.33;14.20;;;9.40;99.90;;;;;;5048292;28;20201;-59
2022/05/31 02:06:30;;;;;;;19.93;13.87;;;9.50;99.90;;;;;;5049978;28;20213;-58
2022/05/31 02:09:00;;;;;;;18.67;12.97;;;9.50;99.90;;;;;;5049354;28;20199;-59
2022/05/31 02:11:29;;;;;;;16.77;12.33;;;9.50;99.90;;;;;;5051148;28;20205;-58
2022/05/31 02:13:59;;;;;;;18.30;12.63;;;9.50;99.90;;;;;;5057010;28;20196;-59
2022/05/31 02:16:28;;;;;;;16.07;13.00;;;9.50;99.90;;;;;;5043946;28;20288;-59
2022/05/31 02:21:47;;;;;;;17.70;15.03;;;9.50;99.90;;;;;;5039553;28;20221;-59
2022/05/31 02:24:16;;;;;;;21.17;14.20;;;9.50;99.90;;;;;;5046315;28;20203;-59
2022/05/31 02:26:47;;;;;;;19.97;13.97;;;9.60;99.90;;;;;;5048423;28;20204;-59
2022/05/31 02:29:18;;;;;;;20.90;13.10;;;9.60;99.90;;;;;;5043806;28;20200;-59
2022/05/31 02:31:47;;;;;;;18.10;13.93;;;9.60;99.90;;;;;;5049492;28;20188;-59
2022/05/31 02:34:18;;;;;;;17.63;13.77;;;9.60;99.90;;;;;;5060742;28;20201;-59
2022/05/31 02:36:48;;;;;;;16.27;13.40;;;9.70;99.90;;;;;;5080682;28;20243;-59
2022/05/31 02:39:16;;;;;;;18.23;13.37;;;9.70;99.90;;;;;;5045944;28;20189;-59
2022/05/31 02:41:45;;;;;;;18.63;14.20;;;9.70;99.90;;;;;;5048963;28;20649;-59
2022/05/31 02:44:13;;;;;;;16.00;13.53;;;9.80;99.90;;;;;;5048500;28;20652;-59
2022/05/31 02:46:42;;;;;;;19.87;14.03;;;9.80;99.90;;;;;;5042693;28;20272;-59
2022/05/31 02:49:11;;;;;;;19.67;14.43;;;9.70;99.90;;;;;;5048673;28;20287;-59
2022/05/31 02:51:43;;;;;;;20.67;15.30;;;9.70;99.90;;;;;;5042714;28;20216;-59
2022/05/31 02:54:15;;;;;;;20.63;16.03;;;9.70;99.90;;;;;;5046561;28;20196;-59
2022/05/31 02:56:44;;;;;;;20.80;14.53;;;9.80;99.90;;;;;;5048425;28;20219;-59
2022/05/31 02:59:12;;;;;;;22.67;14.70;;;9.80;99.90;;;;;;5050171;28;20204;-59
2022/05/31 03:01:42;;;;;;;20.50;15.03;;;9.70;99.90;;;;;;5047958;28;20185;-59
2022/05/31 03:04:13;;;;;;;19.93;14.67;;;9.70;99.90;;;;;;5046927;28;20252;-59
2022/05/31 03:06:41;;;;;;;24.07;16.13;;;9.80;99.90;;;;;;5045114;28;20209;-59
2022/05/31 03:09:10;;;;;;;20.50;14.80;;;9.80;99.90;;;;;;5044904;28;20193;-58
2022/05/31 03:11:44;;;;;;;23.30;16.00;;;9.80;99.90;;;;;;5041645;28;20624;-59
2022/05/31 03:14:17;;;;;;;20.27;15.30;;;9.80;99.90;;;;;;5050833;28;20192;-59
2022/05/31 03:16:49;;;;;;;19.87;14.97;;;9.80;99.90;;;;;;5039309;28;20199;-58
2022/05/31 03:19:23;;;;;;;23.30;15.00;;;9.90;99.90;;;;;;5043447;28;20220;-59
2022/05/31 03:21:56;;;;;;;18.80;15.00;;;9.90;99.90;;;;;;5045053;28;20254;-58
2022/05/31 03:24:30;;;;;;;20.07;15.57;;;9.90;99.90;;;;;;5068599;28;20202;-58
2022/05/31 03:27:03;;;;;;;19.50;15.17;;;9.90;99.90;;;;;;5044781;28;20215;-58
2022/05/31 03:29:31;;;;;;;20.17;14.80;;;9.90;99.90;;;;;;5048463;28;20200;-59
2022/05/31 03:32:00;;;;;;;22.57;15.90;;;9.90;99.90;;;;;;5049180;28;20308;-59
2022/05/31 03:34:28;;;;;;;21.00;15.17;;;9.90;99.90;;;;;;5048978;28;20279;-59
2022/05/31 03:36:57;;;;;;;20.00;14.40;;;9.90;99.90;;;;;;5052032;28;20307;-59
2022/05/31 03:39:25;;;;;;;19.93;14.13;;;9.90;99.90;;;;;;5081889;28;20189;-59
2022/05/31 03:41:54;;;;;;;22.47;14.67;;;9.90;99.90;;;;;;5047282;28;20552;-59
2022/05/31 03:44:23;;;;;;;22.13;14.33;;;9.90;99.90;;;;;;5044486;28;20546;-59
2022/05/31 03:46:52;;;;;;;21.23;14.50;;;9.90;99.90;;;;;;5048296;28;20192;-59
2022/05/31 03:49:23;;;;;;;18.13;14.77;;;9.90;99.90;;;;;;5046884;28;20280;-58
2022/05/31 03:51:51;;;;;;;21.20;14.67;;;9.90;99.90;;;;;;5077235;28;20204;-59
2022/05/31 03:54:19;;;;;;;19.97;14.63;;;9.90;99.90;;;;;;5056375;28;20288;-59
2022/05/31 03:56:47;;;;;;;22.17;15.57;;;9.90;99.90;;;;;;5048358;28;20193;-59
2022/05/31 03:59:16;;;;;;;23.00;15.57;;;10.00;99.90;;;;;;5049540;28;20220;-58
2022/05/31 04:01:46;;;;;;;16.43;14.53;;;10.00;99.90;;;;;;5046052;28;20206;-58
2022/05/31 04:04:52;;;;;;;20.40;14.73;;;10.00;99.90;;;;;;5047973;28;20239;-58
2022/05/31 04:08:04;;;;;;;24.97;14.97;;;10.00;99.90;;;;;;5054077;28;20242;-58
2022/05/31 04:10:33;;;;;;;20.50;13.80;;;10.00;99.90;;;;;;5052779;28;20694;-59
2022/05/31 04:13:02;;;;;;;23.43;14.17;;;10.10;99.90;;;;;;5052473;28;20687;-58
2022/05/31 04:15:33;;;;;;;19.43;14.10;;;10.10;99.90;;;;;;5050442;28;20203;-58
2022/05/31 04:18:04;;;;;;;20.70;14.00;;;10.10;99.90;;;;;;5052344;28;20215;-59
2022/05/31 04:20:33;;;;;;;19.87;14.83;;;10.20;99.90;;;;;;5050177;28;20197;-60
2022/05/31 04:25:48;;;;;;;22.33;15.10;;;10.20;99.90;;;;;;5035884;28;20227;-58
2022/05/31 04:28:16;;;;;;;21.53;15.10;;;10.30;99.90;;;;;;5054176;28;20529;-60
2022/05/31 04:30:45;;;;;;;18.47;13.80;;;10.30;99.90;;;;;;5052039;28;20232;-59
2022/05/31 04:33:15;;;;;;;22.63;14.80;;;10.30;99.90;;;;;;5054842;28;20209;-59
2022/05/31 04:35:43;;;;;;;20.40;14.47;;;10.40;99.90;;;;;;5046677;28;20232;-59
2022/05/31 04:38:11;;;;;;;19.80;14.90;;;10.40;99.90;;;;;;5050329;28;20244;-60
2022/05/31 04:40:40;;;;;;;19.43;14.17;;;10.40;99.90;;;;;;5041140;28;20186;-59
2022/05/31 04:43:08;;;;;;;19.97;15.10;;;10.50;99.90;;;;;;5051440;28;20600;-59
2022/05/31 04:45:37;;;;;;;22.17;13.80;;;10.50;99.90;;;;;;5054100;28;20193;-59
2022/05/31 04:48:06;;;;;;;17.90;14.57;;;10.50;99.90;;;;;;5049972;28;20272;-59
2022/05/31 04:50:37;;;;;;;21.50;14.73;;;10.50;99.90;;;;;;5052977;28;20199;-59
2022/05/31 04:53:05;;;;;;;21.10;14.87;;;10.50;99.90;;;;;;5048268;28;20645;-59
2022/05/31 04:55:34;;;;;;;19.80;14.87;;;10.60;99.90;;;;;;5053414;28;20283;-59
2022/05/31 04:58:02;;;;;;;17.73;14.17;;;10.60;99.90;;;;;;5050136;28;20271;-58
2022/05/31 05:00:36;;;;;;;19.07;14.47;;;10.60;99.90;;;;;;5051887;28;20272;-59
2022/05/31 05:03:04;;;;;;;18.00;13.63;;;10.60;99.90;;;;;;5054036;28;20189;-59
2022/05/31 05:05:33;;;;;;;19.20;14.27;;;10.70;99.90;;;;;;5048351;28;20193;-59
2022/05/31 05:08:03;;;;;;;21.40;14.23;;;10.80;99.90;;;;;;5050721;28;20219;-59
2022/05/31 05:10:31;;;;;;;21.33;14.60;;;10.80;99.90;;;;;;5049605;28;20192;-59
2022/05/31 05:12:59;;;;;;;30.50;16.50;;;10.80;99.90;;;;;;5050674;28;20252;-59
2022/05/31 05:15:28;;;;;;;19.37;14.67;;;10.80;99.90;;;;;;5047517;28;20276;-59
2022/05/31 05:17:56;;;;;;;22.57;14.43;;;10.90;99.90;;;;;;5046826;28;20279;-59
2022/05/31 05:20:24;;;;;;;19.43;14.57;;;10.90;99.90;;;;;;5048992;28;20225;-59
2022/05/31 05:22:52;;;;;;;19.67;14.70;;;11.00;99.90;;;;;;5052464;28;20235;-59
2022/05/31 05:25:22;;;;;;;18.63;13.90;;;11.00;99.90;;;;;;5045566;28;20203;-59
2022/05/31 05:27:50;;;;;;;15.60;13.83;;;11.00;99.90;;;;;;5051363;28;20192;-59
2022/05/31 05:33:04;;;;;;;19.50;14.23;;;11.20;99.90;;;;;;5045424;28;20315;-59
2022/05/31 05:35:33;;;;;;;19.47;13.77;;;11.30;99.90;;;;;;5052717;28;20232;-59
2022/05/31 05:38:01;;;;;;;18.63;14.57;;;11.40;99.90;;;;;;5051375;28;20534;-60
2022/05/31 05:40:33;;;;;;;20.57;14.87;;;11.60;99.90;;;;;;5048296;28;20258;-59
2022/05/31 05:43:01;;;;;;;20.03;14.57;;;11.60;99.90;;;;;;5051581;28;20195;-59
2022/05/31 05:45:32;;;;;;;21.67;14.10;;;11.70;99.90;;;;;;5045671;28;20221;-59
2022/05/31 05:48:00;;;;;;;21.50;14.37;;;11.80;99.90;;;;;;5077249;28;20193;-59
2022/05/31 05:50:35;;;;;;;20.60;13.07;;;11.80;99.90;;;;;;5043898;28;20281;-59
2022/05/31 05:53:08;;;;;;;17.83;12.50;;;12.00;99.90;;;;;;5075948;28;20311;-59
2022/05/31 05:55:38;;;;;;;20.83;12.70;;;12.10;99.90;;;;;;5050523;28;20196;-59
2022/05/31 05:58:08;;;;;;;18.90;12.37;;;12.10;99.90;;;;;;5056146;28;20279;-59
2022/05/31 06:00:41;;;;;;;22.20;11.97;;;12.30;99.90;;;;;;5051760;28;20207;-59
2022/05/31 06:03:15;;;;;;;18.57;12.07;;;12.40;99.90;;;;;;5049300;28;20200;-59
2022/05/31 06:05:46;;;;;;;17.67;11.97;;;12.30;99.90;;;;;;5053818;28;20184;-59
2022/05/31 06:08:20;;;;;;;20.60;11.37;;;12.40;99.90;;;;;;5046278;28;20221;-59
2022/05/31 06:11:01;;;;;;;14.63;10.70;;;12.40;99.90;;;;;;5048650;28;20207;-58
2022/05/31 06:13:35;;;;;;;16.60;10.43;;;12.50;99.90;;;;;;5049609;28;20544;-59
2022/05/31 06:16:06;;;;;;;13.27;10.00;;;12.50;99.90;;;;;;5049720;28;20199;-59
2022/05/31 06:18:39;;;;;;;12.60;9.37;;;12.60;99.90;;;;;;5050442;28;20594;-58
2022/05/31 06:21:08;;;;;;;12.97;8.87;;;12.60;99.90;;;;;;5051522;28;20666;-58
2022/05/31 06:23:38;;;;;;;11.77;8.37;;;12.70;99.90;;;;;;5049679;28;20284;-59
2022/05/31 06:26:07;;;;;;;13.40;8.63;;;12.70;99.90;;;;;;5051556;28;20279;-59
2022/05/31 06:28:36;;;;;;;9.33;8.20;;;12.80;99.90;;;;;;5048671;28;20200;-59
2022/05/31 06:31:04;;;;;;;13.23;8.50;;;12.80;99.90;;;;;;5071707;28;20206;-59
2022/05/31 06:33:32;;;;;;;16.03;8.30;;;12.90;99.90;;;;;;5053222;28;20223;-59
2022/05/31 06:36:01;;;;;;;27.63;10.50;;;13.00;99.90;;;;;;5048414;28;20267;-58
2022/05/31 06:38:30;;;;;;;10.90;8.07;;;13.20;99.90;;;;;;5045790;28;20197;-59
2022/05/31 06:40:58;;;;;;;9.83;7.73;;;13.40;99.90;;;;;;5047229;28;20193;-59
2022/05/31 06:43:28;;;;;;;15.10;8.53;;;13.60;99.90;;;;;;5052989;28;20193;-59
2022/05/31 06:45:56;;;;;;;13.10;8.40;;;13.80;99.90;;;;;;5030026;28;20215;-58
2022/05/31 06:48:24;;;;;;;11.97;8.57;;;14.00;99.90;;;;;;5046533;28;20250;-58
2022/05/31 06:50:52;;;;;;;12.87;8.30;;;14.60;99.90;;;;;;5033501;28;20194;-58
2022/05/31 06:59:05;;;;;;;16.13;8.87;;;14.80;99.90;;;;;;5042354;28;20216;-59
2022/05/31 07:01:37;;;;;;;11.20;8.43;;;14.60;99.90;;;;;;5046590;28;20300;-58
2022/05/31 07:04:06;;;;;;;15.33;9.33;;;14.60;99.90;;;;;;5045819;28;20199;-58
2022/05/31 07:06:36;;;;;;;14.60;8.83;;;15.00;99.90;;;;;;5047489;28;20523;-59
2022/05/31 07:09:05;;;;;;;13.63;9.50;;;15.00;99.90;;;;;;5049802;28;20287;-59
2022/05/31 07:11:33;;;;;;;16.13;9.17;;;14.70;99.90;;;;;;5049270;28;20207;-59
2022/05/31 07:14:02;;;;;;;14.57;8.63;;;14.50;99.90;;;;;;5053954;28;20641;-58
2022/05/31 07:16:31;;;;;;;10.80;8.60;;;14.50;99.90;;;;;;5050202;28;20550;-59
2022/05/31 07:19:00;;;;;;;14.13;8.10;;;14.60;99.90;;;;;;5053501;28;20853;-59
2022/05/31 07:21:29;;;;;;;17.13;8.60;;;14.90;99.90;;;;;;5049709;28;20227;-59
2022/05/31 07:23:57;;;;;;;11.03;8.27;;;15.30;99.90;;;;;;5049690;28;20288;-59
2022/05/31 07:26:26;;;;;;;12.00;7.57;;;15.60;99.90;;;;;;5050756;28;20600;-58
2022/05/31 07:29:03;;;;;;;9.07;6.70;;;15.50;99.90;;;;;;5048455;28;20215;-59
2022/05/31 07:31:36;;;;;;;13.90;7.20;;;15.50;99.90;;;;;;5050024;28;20316;-59
2022/05/31 07:34:24;;;;;;;10.70;7.47;;;15.80;99.90;;;;;;5055544;28;20195;-58
2022/05/31 07:36:53;;;;;;;12.60;6.70;;;16.00;99.90;;;;;;5049517;28;20316;-59
2022/05/31 07:39:23;;;;;;;11.33;5.77;;;15.90;99.90;;;;;;5050569;28;20625;-59
2022/05/31 07:41:54;;;;;;;10.63;5.27;;;16.00;99.90;;;;;;5052107;28;20277;-60
2022/05/31 07:44:23;;;;;;;6.80;4.73;;;16.00;99.90;;;;;;5050650;28;20194;-59
2022/05/31 07:46:53;;;;;;;7.17;5.10;;;16.30;99.90;;;;;;5048474;28;20227;-59
2022/05/31 07:49:22;;;;;;;6.90;5.23;;;16.40;99.90;;;;;;5055921;28;20204;-59
2022/05/31 07:51:52;;;;;;;8.50;5.53;;;16.70;99.90;;;;;;5050573;28;20231;-59
2022/05/31 07:54:20;;;;;;;9.03;5.30;;;16.60;99.90;;;;;;5055262;28;20244;-59
2022/05/31 07:56:49;;;;;;;20.27;6.03;;;16.50;99.90;;;;;;5052840;28;20652;-59
2022/05/31 07:59:18;;;;;;;7.43;5.20;;;16.60;99.90;;;;;;5052969;28;20597;-59
2022/05/31 08:01:47;;;;;;;6.60;4.87;;;17.00;99.90;;;;;;5052485;28;20201;-60
2022/05/31 08:04:16;;;;;;;5.33;4.77;;;17.30;99.90;;;;;;5052067;28;20197;-59
2022/05/31 08:06:45;;;;;;;7.90;4.93;;;17.40;99.90;;;;;;5052804;28;20204;-60
2022/05/31 08:09:13;;;;;;;4.70;4.27;;;17.50;99.90;;;;;;5055272;28;20285;-59
2022/05/31 08:11:42;;;;;;;7.43;4.40;;;17.80;99.90;;;;;;5047366;28;20772;-60
2022/05/31 08:14:10;;;;;;;5.87;4.43;;;17.90;99.90;;;;;;5059640;28;20223;-59
2022/05/31 08:16:39;;;;;;;6.53;4.20;;;17.90;99.90;;;;;;5049027;28;20251;-59
2022/05/31 08:19:07;;;;;;;7.40;4.20;;;17.90;99.90;;;;;;5057544;28;20197;-59
2022/05/31 08:21:37;;;;;;;4.60;3.60;;;18.20;99.90;;;;;;5052257;28;20199;-60
2022/05/31 08:24:07;;;;;;;6.40;3.70;;;18.30;99.90;;;;;;5058061;28;20193;-60
2022/05/31 08:26:56;;;;;;;4.63;3.60;;;18.60;99.90;;;;;;5053812;28;20209;-60
2022/05/31 08:29:24;;;;;;;7.13;4.00;;;18.60;99.90;;;;;;5049954;28;20193;-60
2022/05/31 08:31:53;;;;;;;4.60;3.33;;;18.50;99.90;;;;;;5053053;28;20268;-59
2022/05/31 08:34:21;;;;;;;6.07;2.70;;;18.60;99.90;;;;;;5047936;28;20213;-59
2022/05/31 08:36:51;;;;;;;3.00;2.70;;;18.70;99.90;;;;;;5048216;28;20329;-59
2022/05/31 08:39:20;;;;;;;2.93;2.73;;;19.00;99.90;;;;;;5050959;28;20195;-60
2022/05/31 08:41:50;;;;;;;4.00;2.67;;;19.30;99.90;;;;;;5044644;28;20203;-60
2022/05/31 08:44:37;;;;;;;5.93;2.67;;;19.70;99.90;;;;;;5083437;28;20222;-60
2022/05/31 08:47:18;;;;;;;3.67;2.40;;;19.50;99.90;;;;;;5048417;28;20204;-59
2022/05/31 08:52:51;;;;;;;7.33;2.70;;;19.20;99.90;;;;;;5056499;28;20278;-60
2022/05/31 08:58:16;;;;;;;2.93;2.30;;;19.40;99.90;;;;;;5050823;28;20287;-60
2022/05/31 09:00:47;;;;;;;5.13;2.50;;;19.50;99.90;;;;;;5052007;28;20706;-60
2022/05/31 09:03:21;;;;;;;3.13;2.17;;;19.70;99.90;;;;;;5052915;28;20196;-59
2022/05/31 09:05:55;;;;;;;5.37;2.40;;;20.00;99.90;;;;;;5051096;28;20695;-60
2022/05/31 09:08:30;;;;;;;2.50;2.00;;;20.00;99.90;;;;;;5053101;28;20191;-59
2022/05/31 09:11:05;;;;;;;4.00;2.10;;;20.30;99.90;;;;;;5050893;28;20227;-59
2022/05/31 09:13:39;;;;;;;2.37;2.17;;;20.20;99.90;;;;;;5053085;28;20216;-60
2022/05/31 09:16:14;;;;;;;4.27;1.90;;;20.60;99.90;;;;;;5048996;28;20203;-60
2022/05/31 09:18:48;;;;;;;4.40;2.23;;;20.80;99.90;;;;;;5052682;28;20196;-60
2022/05/31 09:21:22;;;;;;;10.87;2.70;;;21.10;99.90;;;;;;5052930;28;20272;-60
2022/05/31 09:23:52;;;;;;;3.10;2.00;;;21.30;99.90;;;;;;5051709;28;20224;-59
2022/05/31 09:26:44;;;;;;;1.80;1.70;;;21.50;99.90;;;;;;5053216;28;20602;-60
2022/05/31 09:29:17;;;;;;;4.53;2.50;;;21.90;99.90;;;;;;5049019;28;20201;-59
2022/05/31 09:31:57;;;;;;;3.37;2.40;;;22.00;99.90;;;;;;5052094;28;20219;-60
2022/05/31 09:34:41;;;;;;;10.47;3.50;;;21.60;99.90;;;;;;5050157;28;20221;-59
2022/05/31 09:37:22;;;;;;;6.30;2.33;;;21.40;99.90;;;;;;5052223;28;20240;-59
2022/05/31 09:40:02;;;;;;;2.43;2.23;;;21.40;99.90;;;;;;5052832;28;20306;-59
2022/05/31 09:42:37;;;;;;;5.73;2.27;;;21.40;99.90;;;;;;5051214;28;20299;-60
2022/05/31 09:45:09;;;;;;;2.50;2.30;;;20.80;99.90;;;;;;5051529;28;20215;-59
2022/05/31 09:47:38;;;;;;;4.07;2.27;;;20.20;99.90;;;;;;5055090;28;20383;-59
2022/05/31 09:50:08;;;;;;;1.60;1.60;;;19.90;99.90;;;;;;5051119;28;20283;-60
2022/05/31 09:52:42;;;;;;;1.97;1.80;;;20.40;99.90;;;;;;5082344;28;20683;-59
2022/05/31 09:58:07;;;;;;;3.27;1.90;;;22.00;99.90;;;;;;5050816;28;20196;-58
2022/05/31 10:00:36;;;;;;;2.30;1.60;;;22.70;98.90;;;;;;5051775;28;20330;-59
2022/05/31 10:03:15;;;;;;;1.90;1.80;;;23.00;96.10;;;;;;5048550;28;20207;-60
2022/05/31 10:05:48;;;;;;;2.08;1.98;;;22.80;96.90;;;;;;5084699;28;20625;-60
2022/05/31 10:08:18;;;;;;;4.10;1.90;;;23.30;99.80;;;;;;5049298;28;20237;-60
2022/05/31 10:10:49;;;;;;;10.55;2.70;;;23.90;97.50;;;;;;5046726;28;20209;-60
2022/05/31 10:13:36;;;;;;;6.20;2.00;;;23.70;96.80;;;;;;5046495;28;20222;-60
2022/05/31 10:16:16;;;;;;;2.10;1.92;;;23.80;95.80;;;;;;5044409;28;20292;-59
2022/05/31 10:18:52;;;;;;;3.30;1.95;;;23.60;95.90;;;;;;5048458;28;20199;-59
2022/05/31 10:21:33;;;;;;;1.88;1.50;;;22.90;96.20;;;;;;5046260;28;20276;-59
2022/05/31 10:24:15;;;;;;;3.42;1.30;;;23.20;94.70;;;;;;5047011;28;20201;-60
2022/05/31 10:27:04;;;;;;;3.47;1.10;;;23.80;95.10;;;;;;5051897;28;20191;-60
2022/05/31 10:29:41;;;;;;;2.25;1.50;;;24.30;93.80;;;;;;5049304;28;20217;-60
2022/05/31 10:32:28;;;;;;;1.10;1.10;;;24.40;93.90;;;;;;5050633;28;20297;-63
2022/05/31 10:35:12;;;;;;;1.40;1.30;;;24.70;93.00;;;;;;5044474;28;20303;-60
2022/05/31 10:37:57;;;;;;;1.77;1.60;;;24.50;94.90;;;;;;5048654;28;20219;-59
2022/05/31 10:40:31;;;;;;;1.73;1.30;;;24.00;93.00;;;;;;5044411;28;20619;-60
2022/05/31 10:43:10;;;;;;;1.40;1.33;;;23.30;93.80;;;;;;5048382;28;20205;-60
2022/05/31 10:45:39;;;;;;;2.13;1.20;;;23.10;94.60;;;;;;5048075;28;20653;-59
2022/05/31 10:48:10;;;;;;;1.50;1.40;;;23.60;93.50;;;;;;5080662;28;20193;-60
2022/05/31 10:50:53;;;;;;;1.50;1.40;;;24.10;93.70;;;;;;5050849;28;20205;-64
2022/05/31 10:53:30;;;;;;;1.40;1.30;;;24.30;92.20;;;;;;5044984;28;20189;-59
2022/05/31 10:56:05;;;;;;;6.30;1.83;;;24.30;94.60;;;;;;5052468;28;20217;-59
2022/05/31 10:58:54;;;;;;;1.58;1.48;;;24.50;92.50;;;;;;5050215;28;20656;-59
2022/05/31 11:01:47;;;;;;;5.57;1.77;;;24.40;91.40;;;;;;5047564;28;20197;-59
2022/05/31 11:04:34;;;;;;;1.60;1.50;;;23.70;92.00;;;;;;5045512;28;20189;-59
2022/05/31 11:07:13;;;;;;;7.43;1.93;;;23.30;94.50;;;;;;5043388;28;20252;-59
2022/05/31 11:12:52;;;;;;;2.23;1.70;;;22.10;94.00;;;;;;5049423;28;20206;-59
2022/05/31 11:15:32;;;;;;;3.13;1.90;;;21.40;95.60;;;;;;5049218;28;20288;-58
2022/05/31 11:18:21;;;;;;;4.30;2.20;;;20.80;95.20;;;;;;5043589;28;20228;-59
2022/05/31 11:20:55;;;;;;;1.87;1.67;;;20.50;95.10;;;;;;5053223;28;20201;-59
2022/05/31 11:23:49;;;;;;;3.70;2.40;;;20.20;95.50;;;;;;5053372;28;20262;-60
2022/05/31 11:26:35;;;;;;;3.33;2.20;;;19.90;95.70;;;;;;5048092;28;20284;-59
2022/05/31 11:29:38;;;;;;;5.60;2.50;;;19.80;96.30;;;;;;5052375;28;20222;-59
2022/05/31 11:32:16;;;;;;;2.40;2.20;;;19.90;96.30;;;;;;5053535;28;20200;-58
2022/05/31 11:34:59;;;;;;;2.50;2.10;;;20.00;96.90;;;;;;5068926;28;20726;-59
2022/05/31 11:37:42;;;;;;;4.20;2.20;;;20.10;96.90;;;;;;5052157;28;20239;-59
2022/05/31 11:40:30;;;;;;;5.57;2.77;;;20.20;97.30;;;;;;5055113;28;20678;-59
2022/05/31 11:43:30;;;;;;;2.30;2.10;;;20.50;96.90;;;;;;5039327;28;20204;-59
2022/05/31 11:46:06;;;;;;;4.93;2.37;;;21.10;96.40;;;;;;5055802;28;20192;-59
2022/05/31 11:48:59;;;;;;;3.37;2.87;;;21.50;96.60;;;;;;5052451;28;20188;-60
2022/05/31 11:51:47;;;;;;;2.10;2.00;;;21.90;96.30;;;;;;5051578;28;20207;-60
2022/05/31 11:58:01;;;;;;;2.57;2.03;;;22.50;97.30;;;;;;5042984;28;20202;-59
2022/05/31 12:00:37;;;;;;;3.47;1.90;;;22.40;94.80;;;;;;5053404;28;20665;-59
2022/05/31 12:03:12;;;;;;;4.20;1.93;;;22.00;94.90;;;;;;5047683;28;20190;-59
2022/05/31 12:05:47;;;;;;;2.07;1.97;;;21.70;94.70;;;;;;5054426;28;20197;-59
2022/05/31 12:08:20;;;;;;;2.80;2.00;;;21.50;94.60;;;;;;5042813;28;20255;-59
2022/05/31 12:10:52;;;;;;;6.27;1.70;;;21.30;95.40;;;;;;5052785;28;20236;-59
2022/05/31 12:13:22;;;;;;;2.27;1.67;;;21.20;95.00;;;;;;5059875;28;20193;-59
2022/05/31 12:15:53;;;;;;;4.27;1.70;;;21.30;95.40;;;;;;5051448;28;20694;-59
2022/05/31 12:18:32;;;;;;;4.80;1.80;;;21.20;94.90;;;;;;5057127;28;20200;-59
2022/05/31 12:21:10;;;;;;;3.23;2.00;;;21.10;95.00;;;;;;5052929;28;20197;-59
2022/05/31 12:23:43;;;;;;;2.90;1.60;;;21.20;94.80;;;;;;5054540;28;20290;-59
2022/05/31 12:26:21;;;;;;;2.90;1.70;;;21.30;94.20;;;;;;5079511;28;20192;-59
2022/05/31 12:28:55;;;;;;;3.73;1.63;;;21.30;94.60;;;;;;5050781;28;20228;-59
2022/05/31 12:31:26;;;;;;;4.17;1.50;;;21.20;94.90;;;;;;5050719;28;20228;-59
2022/05/31 12:34:13;;;;;;;1.60;1.50;;;21.10;94.50;;;;;;5052518;28;20207;-59
2022/05/31 12:37:02;;;;;;;1.80;1.70;;;20.90;93.30;;;;;;5050242;28;20251;-58
2022/05/31 12:39:33;;;;;;;3.37;1.63;;;20.90;95.50;;;;;;5054673;28;20196;-59
2022/05/31 12:42:34;;;;;;;3.30;1.37;;;20.90;94.20;;;;;;5080888;28;20197;-58
2022/05/31 12:45:37;;;;;;;1.50;1.40;;;21.10;95.50;;;;;;5052213;28;20280;-59
2022/05/31 12:48:18;;;;;;;1.83;1.43;;;21.40;93.90;;;;;;5042892;28;20240;-59
2022/05/31 12:51:07;;;;;;;1.40;1.37;;;21.60;96.50;;;;;;5053177;28;20593;-59
2022/05/31 12:53:59;;;;;;;2.03;1.47;;;21.60;93.30;;;;;;5061255;28;20280;-58
2022/05/31 12:57:02;;;;;;;2.47;1.50;;;21.50;95.40;;;;;;5044502;28;20711;-58
2022/05/31 12:59:54;;;;;;;2.03;1.20;;;21.30;94.50;;;;;;5052606;28;20200;-59
2022/05/31 13:02:44;;;;;;;1.50;1.50;;;21.50;96.00;;;;;;5048171;28;20224;-58
2022/05/31 13:05:34;;;;;;;1.97;1.40;;;21.60;93.70;;;;;;5063408;28;20192;-58
2022/05/31 13:08:21;;;;;;;1.90;1.50;;;21.50;96.10;;;;;;5047365;28;20208;-59
2022/05/31 13:19:41;;;;;;;1.10;1.10;;;22.00;94.70;;;;;;5056172;28;20680;-59
2022/05/31 13:22:14;;;;;;;1.53;1.43;;;22.30;95.80;;;;;;5048780;28;20197;-59
2022/05/31 13:24:46;;;;;;;1.30;1.30;;;22.10;93.20;;;;;;5051631;28;20638;-59
2022/05/31 13:27:21;;;;;;;1.10;1.10;;;21.70;92.30;;;;;;5078870;28;20216;-59
2022/05/31 13:30:01;;;;;;;1.20;1.20;;;21.50;93.80;;;;;;5046152;28;20696;-59
2022/05/31 13:32:34;;;;;;;4.43;1.40;;;21.40;92.80;;;;;;5049642;28;20285;-59
2022/05/31 13:35:09;;;;;;;1.23;1.23;;;21.30;93.30;;;;;;5059837;28;20841;-59
2022/05/31 13:37:54;;;;;;;4.47;1.50;;;21.30;93.00;;;;;;5053066;28;20196;-59
2022/05/31 13:40:24;;;;;;;6.80;1.20;;;21.40;93.30;;;;;;5052908;28;20652;-59
2022/05/31 13:42:55;;;;;;;1.10;1.10;;;21.50;93.30;;;;;;5052410;28;20200;-59
2022/05/31 13:45:27;;;;;;;1.77;1.53;;;21.50;94.10;;;;;;5052464;28;20956;-59
2022/05/31 13:47:59;;;;;;;2.97;1.40;;;21.50;95.80;;;;;;5052091;28;20660;-58
2022/05/31 13:50:37;;;;;;;1.33;1.13;;;21.40;93.70;;;;;;5041583;28;20212;-59